createdAt,value
2018-02-06T00:01:16.037Z,33.13
2018-02-06T00:03:43.597Z,31.70
2018-02-06T00:06:11.202Z,28.17
2018-02-06T00:08:38.793Z,28.83
2018-02-06T00:11:06.544Z,30.37
2018-02-06T00:13:34.128Z,30.30
2018-02-06T00:16:01.680Z,28.03
2018-02-06T00:18:29.231Z,29.07
2018-02-06T00:20:56.820Z,29.23
2018-02-06T00:23:24.372Z,29.33
2018-02-06T00:25:51.945Z,31.30
2018-02-06T00:28:19.555Z,28.97
2018-02-06T00:30:47.121Z,30.80
2018-02-06T00:33:14.701Z,27.63
2018-02-06T00:35:42.310Z,28.43
2018-02-06T00:38:09.875Z,30.43
2018-02-06T00:40:37.432Z,30.33
2018-02-06T00:43:05.054Z,27.97
2018-02-06T00:45:32.626Z,28.53
2018-02-06T00:48:00.206Z,28.30
2018-02-06T00:50:27.813Z,27.33
2018-02-06T00:52:55.400Z,27.80
2018-02-06T00:55:23.044Z,29.87
2018-02-06T00:57:50.631Z,29.20
2018-02-06T01:00:18.190Z,28.03
2018-02-06T01:02:45.763Z,28.83
2018-02-06T01:05:13.367Z,28.03
2018-02-06T01:07:40.934Z,26.67
2018-02-06T01:10:08.516Z,28.43
2018-02-06T01:12:36.110Z,32.23
2018-02-06T01:15:03.688Z,28.90
2018-02-06T01:17:31.285Z,28.33
2018-02-06T01:19:58.894Z,32.73
2018-02-06T01:22:26.464Z,33.50
2018-02-06T01:24:54.041Z,30.93
2018-02-06T01:27:21.660Z,30.00
2018-02-06T01:29:49.205Z,30.70
2018-02-06T01:32:16.940Z,28.83
2018-02-06T01:34:44.625Z,31.63
2018-02-06T01:37:12.271Z,31.60
2018-02-06T01:39:39.854Z,34.47
2018-02-06T01:42:07.532Z,34.70
2018-02-06T01:44:35.094Z,33.27
2018-02-06T01:47:02.766Z,32.73
2018-02-06T01:49:30.372Z,31.93
2018-02-06T01:51:57.945Z,31.87
2018-02-06T01:54:25.504Z,34.17
2018-02-06T01:56:53.106Z,29.13
2018-02-06T01:59:20.671Z,33.27
2018-02-06T02:01:48.230Z,32.27
2018-02-06T02:04:15.822Z,35.00
2018-02-06T02:06:43.382Z,33.40
2018-02-06T02:09:11.070Z,36.90
2018-02-06T02:11:38.692Z,37.80
2018-02-06T02:14:06.277Z,36.70
2018-02-06T02:16:33.884Z,32.00
2018-02-06T02:19:01.531Z,34.10
2018-02-06T02:21:29.093Z,33.87
2018-02-06T02:23:56.817Z,36.47
2018-02-06T02:26:24.418Z,36.47
2018-02-06T02:28:52.000Z,30.70
2018-02-06T02:31:19.592Z,32.13
2018-02-06T02:33:47.233Z,32.77
2018-02-06T02:36:14.816Z,32.73
2018-02-06T02:38:42.393Z,32.43
2018-02-06T02:41:10.008Z,37.00
2018-02-06T04:39:14.589Z,34.73
2018-02-06T04:41:42.156Z,32.43
2018-02-06T04:44:09.748Z,35.17
2018-02-06T04:46:37.367Z,31.47
2018-02-06T04:49:05.313Z,33.50
2018-02-06T04:51:33.054Z,30.93
2018-02-06T04:54:00.654Z,33.07
2018-02-06T04:56:28.219Z,31.75
2018-02-06T04:58:55.771Z,30.93
2018-02-06T05:01:23.375Z,33.33
2018-02-06T05:03:50.935Z,34.73
2018-02-06T05:06:18.566Z,31.23
2018-02-06T05:08:46.180Z,32.80
2018-02-06T05:11:13.894Z,37.40
2018-02-06T05:13:41.454Z,31.70
2018-02-06T05:16:09.069Z,33.90
2018-02-06T05:18:36.623Z,31.63
2018-02-06T05:21:04.188Z,33.23
2018-02-06T05:23:31.795Z,31.93
2018-02-06T05:25:59.372Z,31.80
2018-02-06T05:28:26.956Z,32.70
2018-02-06T05:30:54.558Z,32.57
2018-02-06T05:33:22.235Z,31.93
2018-02-06T05:35:49.901Z,30.37
2018-02-06T05:38:17.570Z,36.75
2018-02-06T05:40:45.149Z,33.30
2018-02-06T05:43:12.722Z,30.00
2018-02-06T05:45:40.349Z,28.67
2018-02-06T05:48:07.923Z,29.10
2018-02-06T05:50:35.500Z,28.27
2018-02-06T05:53:03.118Z,32.00
2018-02-06T05:55:30.706Z,28.70
2018-02-06T05:57:58.452Z,39.08
2018-02-06T06:00:26.067Z,26.97
2018-02-06T06:02:53.656Z,25.80
2018-02-06T06:05:21.236Z,25.57
2018-02-06T06:07:48.837Z,23.98
2018-02-06T06:10:16.424Z,23.73
2018-02-06T06:12:44.017Z,20.83
2018-02-06T06:15:11.638Z,19.43
2018-02-06T06:17:39.203Z,23.07
2018-02-06T06:20:06.776Z,22.63
2018-02-06T06:22:34.377Z,18.63
2018-02-06T06:25:01.944Z,21.13
2018-02-06T06:27:29.524Z,20.33
2018-02-06T06:29:57.136Z,23.77
2018-02-06T06:32:24.906Z,20.03
2018-02-06T06:34:52.520Z,20.60
2018-02-06T06:37:20.132Z,23.23
2018-02-06T06:39:47.700Z,23.70
2018-02-06T06:42:15.271Z,26.67
2018-02-06T06:44:42.878Z,29.00
2018-02-06T06:47:10.438Z,32.70
2018-02-06T06:49:38.008Z,32.03
2018-02-06T06:52:05.853Z,31.00
2018-02-06T06:54:33.430Z,33.00
2018-02-06T06:57:01.165Z,34.93
2018-02-06T06:59:28.775Z,34.27
2018-02-06T07:01:56.387Z,30.23
2018-02-06T07:04:23.981Z,34.60
2018-02-06T07:06:51.581Z,33.40
2018-02-06T07:09:19.155Z,30.90
2018-02-06T07:11:46.728Z,34.77
2018-02-06T07:14:14.322Z,40.30
2018-02-06T07:16:41.895Z,38.40
2018-02-06T07:19:09.479Z,43.13
2018-02-06T07:21:37.103Z,41.70
2018-02-06T07:24:04.673Z,36.50
2018-02-06T07:26:32.270Z,34.20
2018-02-06T07:29:00.060Z,35.67
2018-02-06T07:31:27.657Z,29.67
2018-02-06T07:33:55.224Z,29.40
2018-02-06T07:36:23.771Z,27.07
2018-02-06T07:38:51.353Z,28.30
2018-02-06T07:41:18.980Z,28.20
2018-02-06T07:43:46.599Z,25.73
2018-02-06T07:46:14.186Z,30.03
2018-02-06T07:48:41.790Z,33.57
2018-02-06T07:51:09.422Z,25.40
2018-02-06T07:53:37.004Z,29.10
2018-02-06T07:56:04.591Z,37.27
2018-02-06T07:58:32.198Z,43.73
2018-02-06T08:00:59.762Z,45.90
2018-02-06T08:03:27.351Z,40.03
2018-02-06T08:05:55.014Z,33.23
2018-02-06T08:08:22.655Z,42.53
2018-02-06T08:10:50.270Z,47.40
2018-02-06T08:13:17.894Z,47.40
2018-02-06T08:15:45.494Z,51.90
2018-02-06T08:18:13.088Z,52.40
2018-02-06T08:20:40.714Z,53.53
2018-02-06T08:23:08.288Z,47.87
2018-02-06T08:25:35.941Z,48.77
2018-02-06T08:28:03.565Z,44.37
2018-02-06T08:30:31.133Z,42.00
2018-02-06T08:32:58.694Z,41.87
2018-02-06T08:35:26.299Z,44.27
2018-02-06T08:37:53.876Z,41.10
2018-02-06T08:40:21.470Z,37.00
2018-02-06T08:42:49.094Z,35.03
2018-02-06T08:45:16.667Z,39.73
2018-02-06T08:47:44.263Z,41.70
2018-02-06T08:50:11.878Z,40.77
2018-02-06T08:52:39.475Z,46.90
2018-02-06T08:55:07.089Z,37.40
2018-02-06T08:57:34.751Z,34.77
2018-02-06T09:00:02.335Z,31.87
2018-02-06T09:02:29.907Z,26.50
2018-02-06T09:04:57.539Z,26.90
2018-02-06T09:07:25.119Z,27.90
2018-02-06T09:09:52.690Z,28.47
2018-02-06T09:12:20.305Z,26.13
2018-02-06T09:14:47.887Z,28.03
2018-02-06T09:17:15.476Z,25.43
2018-02-06T09:19:43.177Z,25.30
2018-02-06T09:22:10.759Z,29.20
2018-02-06T09:24:38.346Z,25.27
2018-02-06T09:27:05.946Z,24.00
2018-02-06T09:29:33.513Z,22.80
2018-02-06T09:32:01.100Z,22.43
2018-02-06T09:34:28.730Z,20.33
2018-02-06T09:36:56.314Z,22.20
2018-02-06T09:39:24.788Z,23.57
2018-02-06T09:41:52.398Z,26.43
2018-02-06T09:44:19.978Z,27.60
2018-02-06T09:46:47.553Z,26.03
2018-02-06T09:49:15.229Z,28.80
2018-02-06T09:51:42.809Z,26.03
2018-02-06T09:54:10.388Z,25.57
2018-02-06T09:56:37.988Z,28.37
2018-02-06T09:59:05.567Z,25.40
2018-02-06T10:01:33.273Z,24.17
2018-02-06T10:04:00.930Z,24.40
2018-02-06T10:06:28.500Z,23.77
2018-02-06T10:08:56.074Z,23.00
2018-02-06T10:11:23.696Z,22.57
2018-02-06T10:13:51.374Z,23.23
2018-02-06T10:16:18.949Z,21.87
2018-02-06T10:18:46.545Z,22.27
2018-02-06T10:21:14.165Z,15.20
2018-02-06T10:23:41.730Z,14.70
2018-02-06T10:26:09.341Z,13.43
2018-02-06T10:28:36.916Z,15.83
2018-02-06T10:31:04.493Z,14.13
2018-02-06T10:33:32.098Z,12.63
2018-02-06T10:35:59.665Z,10.27
2018-02-06T10:38:27.227Z,8.80
2018-02-06T10:40:54.841Z,9.00
2018-02-06T10:43:22.401Z,9.73
2018-02-06T10:45:49.971Z,10.50
2018-02-06T10:48:17.623Z,8.53
2018-02-06T10:50:45.183Z,6.57
2018-02-06T10:53:12.910Z,8.00
2018-02-06T10:55:40.529Z,7.77
2018-02-06T10:58:08.164Z,8.20
2018-02-06T11:00:35.857Z,11.93
2018-02-06T11:03:03.451Z,7.83
2018-02-06T11:05:31.098Z,7.10
2018-02-06T11:07:58.661Z,7.00
2018-02-06T11:10:26.263Z,6.30
2018-02-06T11:12:53.892Z,8.13
2018-02-06T11:15:21.447Z,7.90
2018-02-06T11:17:49.042Z,8.17
2018-02-06T11:20:16.638Z,7.87
2018-02-06T11:22:44.192Z,8.33
2018-02-06T11:25:11.810Z,6.83
2018-02-06T11:27:39.379Z,7.07
2018-02-06T11:30:07.006Z,6.90
2018-02-06T11:32:34.653Z,9.13
2018-02-06T11:35:02.227Z,9.63
2018-02-06T11:37:29.788Z,6.47
2018-02-06T11:39:57.386Z,7.97
2018-02-06T11:42:25.031Z,8.87
2018-02-06T11:44:52.623Z,10.67
2018-02-06T11:47:20.239Z,7.70
2018-02-06T11:49:47.806Z,9.00
2018-02-06T11:52:15.384Z,8.43
2018-02-06T11:54:42.966Z,8.50
2018-02-06T11:57:10.533Z,7.20
2018-02-06T11:59:38.145Z,7.17
2018-02-06T12:02:05.746Z,7.50
2018-02-06T12:04:33.299Z,7.40
2018-02-06T12:07:00.864Z,6.77
2018-02-06T12:09:28.800Z,8.80
2018-02-06T12:11:56.359Z,7.10
2018-02-06T12:14:23.922Z,7.20
2018-02-06T12:16:51.534Z,7.17
2018-02-06T12:19:19.109Z,8.20
2018-02-06T12:21:46.681Z,10.50
2018-02-06T12:24:14.312Z,9.33
2018-02-06T12:26:41.919Z,7.80
2018-02-06T12:29:09.561Z,7.93
2018-02-06T12:31:37.257Z,8.40
2018-02-06T12:34:04.910Z,8.60
2018-02-06T12:36:32.479Z,8.43
2018-02-06T12:39:00.085Z,7.63
2018-02-06T12:41:27.770Z,8.20
2018-02-06T12:43:55.323Z,7.07
2018-02-06T12:46:22.911Z,7.37
2018-02-06T12:48:50.465Z,7.80
2018-02-06T12:51:18.032Z,8.73
2018-02-06T12:53:45.617Z,9.90
2018-02-06T12:56:13.207Z,8.03
2018-02-06T12:58:40.799Z,9.67
2018-02-06T13:01:08.380Z,9.20
2018-02-06T13:03:35.935Z,9.73
2018-02-06T13:06:03.507Z,7.20
2018-02-06T13:08:31.087Z,7.60
2018-02-06T13:10:59.508Z,8.37
2018-02-06T13:13:27.076Z,7.87
2018-02-06T13:15:54.679Z,9.93
2018-02-06T13:18:22.290Z,8.60
2018-02-06T13:20:49.836Z,7.97
2018-02-06T13:23:17.437Z,8.90
2018-02-06T13:25:45.278Z,10.70
2018-02-06T13:28:12.823Z,12.17
2018-02-06T13:30:40.429Z,10.80
2018-02-06T13:33:08.005Z,10.30
2018-02-06T13:35:35.564Z,10.00
2018-02-06T13:38:03.163Z,9.57
2018-02-06T13:40:30.731Z,10.43
2018-02-06T13:42:58.292Z,12.13
2018-02-06T13:45:25.905Z,11.27
2018-02-06T13:47:53.472Z,10.40
2018-02-06T13:50:21.046Z,15.43
2018-02-06T13:52:48.631Z,10.33
2018-02-06T13:55:16.242Z,8.93
2018-02-06T13:57:48.524Z,10.10
2018-02-06T14:00:16.146Z,11.90
2018-02-06T14:02:43.699Z,12.03
2018-02-06T14:05:11.270Z,16.17
2018-02-06T14:07:38.841Z,16.33
2018-02-06T14:10:06.390Z,16.37
2018-02-06T14:12:34.042Z,15.60
2018-02-06T14:15:01.644Z,12.40
2018-02-06T14:17:29.241Z,16.40
2018-02-06T14:19:56.875Z,12.63
2018-02-06T14:22:24.442Z,14.57
2018-02-06T14:24:51.993Z,16.50
2018-02-06T14:27:19.579Z,16.33
2018-02-06T14:29:47.223Z,17.10
2018-02-06T14:32:14.805Z,16.80
2018-02-06T14:34:42.519Z,19.70
2018-02-06T14:37:10.131Z,18.03
2018-02-06T14:39:37.717Z,15.23
2018-02-06T14:42:05.339Z,15.73
2018-02-06T14:44:32.911Z,15.60
2018-02-06T14:47:00.476Z,16.37
2018-02-06T14:49:28.095Z,13.90
2018-02-06T14:51:55.650Z,20.10
2018-02-06T14:54:23.244Z,19.47
2018-02-06T14:56:50.943Z,17.70
2018-02-06T14:59:18.496Z,20.13
2018-02-06T15:01:46.066Z,12.50
2018-02-06T15:04:13.759Z,15.50
2018-02-06T15:06:41.349Z,14.53
2018-02-06T15:09:08.920Z,13.50
2018-02-06T15:11:36.525Z,12.93
2018-02-06T15:14:04.129Z,12.63
2018-02-06T15:16:31.753Z,17.17
2018-02-06T15:18:59.350Z,19.23
2018-02-06T15:21:26.930Z,14.80
2018-02-06T15:23:54.521Z,15.33
2018-02-06T15:26:22.186Z,22.33
2018-02-06T15:28:49.892Z,18.80
2018-02-06T15:31:17.471Z,16.40
2018-02-06T15:33:45.081Z,18.00
2018-02-06T15:36:12.849Z,18.97
2018-02-06T15:38:40.421Z,19.70
2018-02-06T15:41:08.105Z,16.80
2018-02-06T15:43:35.687Z,19.10
2018-02-06T15:46:03.299Z,18.40
2018-02-06T15:48:30.901Z,18.67
2018-02-06T15:50:58.485Z,15.70
2018-02-06T15:53:26.068Z,17.67
2018-02-06T15:55:53.654Z,16.70
2018-02-06T15:58:21.206Z,14.43
2018-02-06T16:00:49.476Z,17.07
2018-02-06T16:03:17.072Z,16.30
2018-02-06T16:05:44.659Z,18.30
2018-02-06T16:08:12.249Z,16.67
2018-02-06T16:10:39.869Z,14.40
2018-02-06T16:13:07.428Z,14.00
2018-02-06T16:15:35.189Z,13.83
2018-02-06T16:18:02.929Z,15.13
2018-02-06T16:20:30.487Z,16.03
2018-02-06T16:22:58.141Z,17.87
2018-02-06T16:25:25.889Z,15.37
2018-02-06T16:27:53.461Z,18.20
2018-02-06T16:30:21.049Z,12.43
2018-02-06T16:32:48.655Z,16.00
2018-02-06T16:35:16.228Z,12.90
2018-02-06T16:37:43.810Z,12.97
2018-02-06T16:40:11.463Z,15.50
2018-02-06T16:42:39.026Z,15.67
2018-02-06T16:45:06.588Z,16.90
2018-02-06T16:47:34.200Z,13.30
2018-02-06T16:50:01.775Z,11.10
2018-02-06T16:52:29.345Z,16.57
2018-02-06T16:54:56.942Z,16.40
2018-02-06T16:57:24.510Z,15.57
2018-02-06T16:59:52.086Z,15.10
2018-02-06T17:02:31.262Z,16.70
2018-02-06T17:04:58.824Z,15.30
2018-02-06T17:07:26.389Z,15.80
2018-02-06T17:09:53.991Z,18.83
2018-02-06T17:12:21.707Z,16.50
2018-02-06T17:14:49.264Z,13.67
2018-02-06T17:17:16.853Z,12.73
2018-02-06T17:19:44.430Z,13.20
2018-02-06T17:22:12.029Z,14.43
2018-02-06T17:24:39.605Z,16.53
2018-02-06T17:27:07.170Z,14.20
2018-02-06T17:29:34.734Z,14.70
2018-02-06T17:32:02.376Z,15.57
2018-02-06T17:34:29.935Z,14.57
2018-02-06T17:36:57.545Z,14.33
2018-02-06T17:39:25.173Z,16.50
2018-02-06T17:41:52.736Z,15.67
2018-02-06T17:44:20.311Z,16.27
2018-02-06T17:46:47.929Z,18.87
2018-02-06T17:49:15.480Z,18.37
2018-02-06T17:51:43.075Z,16.90
2018-02-06T17:54:10.679Z,15.93
2018-02-06T17:56:38.234Z,16.10
2018-02-06T17:59:05.783Z,13.50
2018-02-06T18:01:33.392Z,16.07
2018-02-06T18:04:00.942Z,14.60
2018-02-06T18:06:28.589Z,14.50
2018-02-06T18:08:56.206Z,12.83
2018-02-06T18:11:23.751Z,16.10
2018-02-06T18:13:51.310Z,12.23
2018-02-06T18:16:18.907Z,12.50
2018-02-06T18:18:46.552Z,13.90
2018-02-06T18:21:14.124Z,11.83
2018-02-06T18:23:41.735Z,15.17
2018-02-06T18:26:09.285Z,12.07
2018-02-06T18:28:36.867Z,15.33
2018-02-06T18:31:04.464Z,12.90
2018-02-06T18:33:32.036Z,12.70
2018-02-06T18:35:59.611Z,13.23
2018-02-06T18:38:27.248Z,15.73
2018-02-06T18:40:54.922Z,15.60
2018-02-06T18:43:22.514Z,17.60
2018-02-06T18:45:50.140Z,14.23
2018-02-06T18:48:17.727Z,18.00
2018-02-06T18:50:45.290Z,15.10
2018-02-06T18:53:12.899Z,21.47
2018-02-06T18:55:40.480Z,20.00
2018-02-06T18:58:08.085Z,19.07
2018-02-06T19:00:35.690Z,16.13
2018-02-06T19:03:03.269Z,13.13
2018-02-06T19:05:30.906Z,14.80
2018-02-06T19:07:58.631Z,15.13
2018-02-06T19:10:26.229Z,13.60
2018-02-06T19:12:53.804Z,13.30
2018-02-06T19:15:21.435Z,13.47
2018-02-06T19:17:49.042Z,12.90
2018-02-06T19:20:16.673Z,14.50
2018-02-06T19:22:44.724Z,12.30
2018-02-06T19:25:12.391Z,14.30
2018-02-06T19:27:39.950Z,16.00
2018-02-06T19:30:07.582Z,15.10
2018-02-06T19:32:35.162Z,19.23
2018-02-06T19:35:02.757Z,16.00
2018-02-06T19:37:30.333Z,14.97
2018-02-06T19:39:57.962Z,14.23
2018-02-06T19:42:25.532Z,17.03
2018-02-06T19:44:53.166Z,14.87
2018-02-06T19:47:20.753Z,15.20
2018-02-06T19:49:48.375Z,17.93
2018-02-06T19:52:15.974Z,17.13
2018-02-06T19:54:43.559Z,15.20
2018-02-06T19:57:11.109Z,15.93
2018-02-06T19:59:38.694Z,16.73
2018-02-06T20:02:06.243Z,15.00
2018-02-06T20:04:33.793Z,13.17
2018-02-06T20:07:01.375Z,15.20
2018-02-06T20:09:28.947Z,14.47
2018-02-06T20:11:56.499Z,15.27
2018-02-06T20:14:24.077Z,10.77
2018-02-06T20:16:51.632Z,17.53
2018-02-06T20:19:19.196Z,14.50
2018-02-06T20:21:46.803Z,16.40
2018-02-06T20:24:14.374Z,11.60
2018-02-06T20:26:41.937Z,12.50
2018-02-06T20:29:09.552Z,13.00
2018-02-06T20:31:37.122Z,13.37
2018-02-06T20:34:04.696Z,13.63
2018-02-06T20:36:32.293Z,12.20
2018-02-06T20:38:59.858Z,14.97
2018-02-06T20:41:27.417Z,17.07
2018-02-06T20:43:55.123Z,16.73
2018-02-06T20:46:22.715Z,15.07
2018-02-06T20:48:50.280Z,12.90
2018-02-06T20:51:17.872Z,14.50
2018-02-06T20:53:45.450Z,14.13
2018-02-06T20:56:13.952Z,14.20
2018-02-06T20:58:41.556Z,15.03
2018-02-06T21:01:09.170Z,12.77
2018-02-06T21:03:36.774Z,16.20
2018-02-06T21:06:04.493Z,15.77
2018-02-06T21:08:32.685Z,17.03
2018-02-06T21:11:01.745Z,15.27
2018-02-06T21:13:30.973Z,14.97
2018-02-06T21:16:00.669Z,13.40
2018-02-06T21:18:29.499Z,20.47
2018-02-06T21:20:57.202Z,17.03
2018-02-06T21:23:24.765Z,14.00
2018-02-06T21:25:52.339Z,11.07
2018-02-06T21:28:19.943Z,18.93
2018-02-06T21:30:47.500Z,15.37
2018-02-06T21:33:15.056Z,16.20
2018-02-06T21:35:42.641Z,14.60
2018-02-06T21:38:10.212Z,14.90
2018-02-06T21:40:37.794Z,16.23
2018-02-06T21:43:05.441Z,13.70
2018-02-06T21:45:33.006Z,16.27
2018-02-06T21:48:00.580Z,18.23
2018-02-06T21:50:28.175Z,17.77
2018-02-06T21:52:55.739Z,18.33
2018-02-06T21:55:23.302Z,12.87
2018-02-06T21:57:50.905Z,16.53
2018-02-06T22:00:18.468Z,13.20
2018-02-06T22:02:46.045Z,12.23
2018-02-06T22:05:13.721Z,13.27
2018-02-06T22:07:41.282Z,12.87
2018-02-06T22:10:08.824Z,12.60
2018-02-06T22:12:36.421Z,12.50
2018-02-06T22:15:04.000Z,14.60
2018-02-06T22:17:31.550Z,12.40
2018-02-06T22:19:59.138Z,14.40
2018-02-06T22:22:26.687Z,13.57
2018-02-06T22:24:54.240Z,11.53
2018-02-06T22:27:21.854Z,10.27
2018-02-06T22:29:49.411Z,12.20
2018-02-06T22:32:16.986Z,10.67
2018-02-06T22:34:44.590Z,11.63
2018-02-06T22:37:12.226Z,11.90
2018-02-06T22:39:39.861Z,10.67
2018-02-06T22:42:07.678Z,12.90
2018-02-06T22:44:35.240Z,12.67
2018-02-06T22:47:02.800Z,12.37
2018-02-06T22:49:30.389Z,10.83
2018-02-06T22:51:57.933Z,10.87
2018-02-06T22:54:25.496Z,13.17
2018-02-06T22:56:53.083Z,13.57
2018-02-06T22:59:20.652Z,11.10
2018-02-06T23:01:48.210Z,12.40
2018-02-06T23:04:15.845Z,15.10
2018-02-06T23:06:43.430Z,14.93
2018-02-06T23:09:11.031Z,13.93
2018-02-06T23:11:38.626Z,13.13
2018-02-06T23:14:06.208Z,12.70
2018-02-06T23:16:33.765Z,9.70
2018-02-06T23:19:01.367Z,14.77
2018-02-06T23:21:28.934Z,13.17
2018-02-06T23:23:56.514Z,12.67
2018-02-06T23:26:24.123Z,13.63
2018-02-06T23:28:51.688Z,13.87
2018-02-06T23:31:19.255Z,12.57
2018-02-06T23:33:46.924Z,11.70
2018-02-06T23:36:14.486Z,13.83
2018-02-06T23:38:42.058Z,12.93
2018-02-06T23:41:09.664Z,13.00
2018-02-06T23:43:37.256Z,13.90
2018-02-06T23:46:04.809Z,14.43
2018-02-06T23:48:32.441Z,16.00
2018-02-06T23:51:00.015Z,14.80
2018-02-06T23:53:27.590Z,12.80
2018-02-06T23:55:55.205Z,12.57
2018-02-06T23:58:22.772Z,13.23
